YBBN/BNE METAR and TAF weather

Enter ICAO airport designator
Station Type Date Time Source
YBBN METAR 2018/12/19 09:00 UTC NOAA

YBBN 190900Z 03008KT 9999 FEW020 25/21 Q1011 NOSIG


Station Type Date Time Source
YBBN Decoded METAR 2018/12/19 09:00 UTC NOAA

Brisbane Airport M. O, Australia (YBBN) 27-23S 153-06E 5M
Dec 19, 2018 - 04:00 AM EST / 2018.12.19 0900 UTC
Wind: from the NNE (030 degrees) at 9 MPH (8 KT):0
Visibility: greater than 7 mile(s):0
Sky conditions: mostly clear
Temperature: 77 F (25 C)
Dew Point: 69 F (21 C)
Relative Humidity: 78%
Pressure (altimeter): 29.85 in. Hg (1011 hPa)
ob: YBBN 190900Z 03008KT 9999 FEW020 25/21 Q1011 NOSIG
cycle: 9

Station Type Date Time Source
YBBN TAF 2018/12/19 06:34 UTC NOAA

TAF YBBN 190501Z 1906/2012 04013KT 9999 FEW025
FM190900 03007KT 9999 SCT020
FM191600 32006KT 9999 SCT015
FM192300 35010KT 9999 SCT025
FM200300 02014KT 9999 FEW025
FM200900 01010KT 9999 SCT012


Example: see airport list